createdAt,value
2023-03-27T00:02:09.094Z,53.56
2023-03-27T00:04:36.201Z,54.00
2023-03-27T00:07:03.929Z,53.76
2023-03-27T00:09:32.259Z,53.63
2023-03-27T00:12:01.008Z,53.57
2023-03-27T00:14:28.758Z,53.46
2023-03-27T00:16:57.417Z,53.40
2023-03-27T00:19:25.237Z,54.48
2023-03-27T00:21:53.420Z,55.54
2023-03-27T00:24:20.439Z,58.40
2023-03-27T00:26:47.696Z,61.61
2023-03-27T00:29:14.731Z,62.57
2023-03-27T00:31:42.188Z,62.56
2023-03-27T00:34:13.379Z,62.01
2023-03-27T00:36:40.610Z,61.88
2023-03-27T00:39:07.572Z,61.52
2023-03-27T00:41:34.593Z,59.74
2023-03-27T00:44:04.203Z,58.61
2023-03-27T00:46:44.818Z,58.61
2023-03-27T00:49:15.303Z,57.60
2023-03-27T00:51:46.843Z,54.39
2023-03-27T00:54:26.504Z,56.91
2023-03-27T00:57:02.154Z,61.23
2023-03-27T00:59:32.244Z,62.88
2023-03-27T01:02:02.073Z,63.75
2023-03-27T01:04:31.534Z,62.51
2023-03-27T01:07:00.361Z,61.84
2023-03-27T01:09:28.001Z,62.08
2023-03-27T01:12:03.361Z,64.89
2023-03-27T01:14:54.888Z,65.30
2023-03-27T01:17:41.047Z,64.61
2023-03-27T01:20:36.929Z,66.00
2023-03-27T01:23:36.166Z,64.79
2023-03-27T01:26:48.922Z,65.47
2023-03-27T01:29:28.423Z,67.24
2023-03-27T01:32:26.036Z,66.21
2023-03-27T01:35:16.163Z,66.29
2023-03-27T01:38:04.464Z,66.77
2023-03-27T01:40:48.081Z,66.31
2023-03-27T01:43:19.641Z,67.44
2023-03-27T01:46:12.444Z,67.21
2023-03-27T01:48:39.418Z,66.38
2023-03-27T01:51:15.869Z,66.49
2023-03-27T01:54:15.728Z,65.88
2023-03-27T01:56:53.837Z,65.68
2023-03-27T01:59:27.976Z,66.57
2023-03-27T02:02:04.834Z,66.48
2023-03-27T02:04:41.989Z,66.69
2023-03-27T02:07:14.778Z,66.52
2023-03-27T02:09:49.511Z,67.59
2023-03-27T02:12:28.891Z,67.23
2023-03-27T02:15:26.212Z,66.78
2023-03-27T02:18:19.677Z,66.58
2023-03-27T02:20:46.880Z,67.03
2023-03-27T02:23:14.101Z,66.14
2023-03-27T02:25:44.656Z,66.17
2023-03-27T02:28:29.368Z,67.15
2023-03-27T02:31:32.765Z,68.75
2023-03-27T02:34:22.685Z,67.47
2023-03-27T02:37:32.545Z,66.58
2023-03-27T02:40:18.900Z,66.67
2023-03-27T02:43:08.718Z,65.45
2023-03-27T02:46:17.299Z,65.73
2023-03-27T02:48:52.123Z,64.37
2023-03-27T02:51:23.025Z,64.86
2023-03-27T02:54:15.566Z,64.97
2023-03-27T02:57:00.301Z,63.12
2023-03-27T02:59:45.550Z,64.04
2023-03-27T03:02:20.556Z,64.72
2023-03-27T03:05:06.250Z,65.28
2023-03-27T03:07:40.328Z,65.16
2023-03-27T03:10:09.775Z,63.74
2023-03-27T03:12:37.082Z,63.11
2023-03-27T03:15:04.922Z,62.93
2023-03-27T03:17:32.027Z,62.49
2023-03-27T03:19:59.036Z,62.45
2023-03-27T03:22:27.317Z,62.77
2023-03-27T03:24:54.612Z,62.89
2023-03-27T03:27:29.193Z,62.50
2023-03-27T03:30:09.921Z,61.71
2023-03-27T03:32:58.333Z,60.58
2023-03-27T03:35:25.910Z,60.68
2023-03-27T03:37:53.461Z,60.37
2023-03-27T03:40:20.985Z,60.25
2023-03-27T03:42:52.067Z,59.91
2023-03-27T03:45:23.532Z,59.23
2023-03-27T03:47:50.889Z,59.93
2023-03-27T03:50:18.046Z,58.95
2023-03-27T03:52:46.179Z,57.33
2023-03-27T03:55:13.894Z,57.68
2023-03-27T03:57:42.004Z,58.48
2023-03-27T04:00:17.235Z,57.46
2023-03-27T04:02:44.830Z,57.42
2023-03-27T04:05:14.430Z,57.92
2023-03-27T04:07:42.554Z,57.13
2023-03-27T04:10:20.091Z,57.50
2023-03-27T04:12:51.464Z,57.24
2023-03-27T04:15:22.884Z,57.88
2023-03-27T04:18:09.222Z,57.88
2023-03-27T04:20:38.339Z,58.50
2023-03-27T04:23:09.312Z,57.11
2023-03-27T04:25:38.502Z,57.00
2023-03-27T04:28:06.446Z,56.61
2023-03-27T04:30:38.940Z,56.66
2023-03-27T04:33:24.429Z,56.66
2023-03-27T04:36:18.354Z,56.33
2023-03-27T04:38:55.700Z,56.15
2023-03-27T04:41:22.956Z,56.69
2023-03-27T04:43:50.252Z,56.75
2023-03-27T04:46:17.416Z,56.28
2023-03-27T04:48:44.832Z,55.46
2023-03-27T04:51:26.890Z,55.36
2023-03-27T04:53:56.529Z,55.14
2023-03-27T04:56:25.173Z,55.41
2023-03-27T04:58:54.738Z,55.83
2023-03-27T05:01:23.096Z,56.36
2023-03-27T05:03:50.617Z,56.24
2023-03-27T05:06:27.868Z,57.06
2023-03-27T05:08:55.188Z,57.54
2023-03-27T05:11:25.954Z,57.72
2023-03-27T05:13:53.057Z,57.88
2023-03-27T05:16:26.814Z,56.49
2023-03-27T05:18:58.785Z,56.48
2023-03-27T05:21:26.171Z,56.40
2023-03-27T05:23:53.467Z,56.86
2023-03-27T05:26:24.103Z,56.98
2023-03-27T05:28:58.621Z,56.69
2023-03-27T05:31:27.371Z,57.39
2023-03-27T05:34:02.900Z,56.98
2023-03-27T05:36:32.752Z,56.71
2023-03-27T05:38:59.902Z,56.54
2023-03-27T05:41:39.580Z,56.12
2023-03-27T05:44:07.607Z,55.38
2023-03-27T05:46:37.770Z,53.13
2023-03-27T05:49:11.722Z,52.64
2023-03-27T05:51:46.772Z,51.22
2023-03-27T05:54:19.727Z,52.47
2023-03-27T05:57:08.049Z,53.12
2023-03-27T05:59:36.113Z,52.21
2023-03-27T06:02:23.571Z,54.13
2023-03-27T06:04:56.419Z,52.63
2023-03-27T06:07:30.359Z,51.94
2023-03-27T06:10:03.149Z,51.09
2023-03-27T06:12:32.770Z,49.65
2023-03-27T06:15:13.092Z,48.81
2023-03-27T06:17:48.061Z,46.57
2023-03-27T06:20:15.706Z,45.14
2023-03-27T06:23:01.875Z,46.93
2023-03-27T06:25:34.809Z,47.26
2023-03-27T06:28:09.703Z,47.20
2023-03-27T06:30:49.756Z,47.55
2023-03-27T06:33:37.341Z,48.06
2023-03-27T06:36:07.005Z,48.05
2023-03-27T06:38:37.393Z,46.59
2023-03-27T06:41:05.805Z,45.74
2023-03-27T06:43:54.042Z,47.08
2023-03-27T06:46:45.000Z,47.34
2023-03-27T06:49:24.050Z,45.92
2023-03-27T06:51:51.587Z,45.80
2023-03-27T06:54:20.899Z,47.00
2023-03-27T06:56:51.654Z,45.94
2023-03-27T06:59:21.600Z,47.43
2023-03-27T07:01:55.791Z,47.43
2023-03-27T07:04:35.070Z,47.79
2023-03-27T07:07:11.403Z,48.08
2023-03-27T07:09:43.999Z,47.54
2023-03-27T07:12:13.784Z,47.84
2023-03-27T07:14:43.157Z,48.41
2023-03-27T07:17:10.857Z,47.53
2023-03-27T07:19:57.633Z,48.22
2023-03-27T07:22:27.192Z,48.58
2023-03-27T07:24:55.996Z,47.35
2023-03-27T07:27:25.819Z,47.63
2023-03-27T07:30:00.406Z,48.87
2023-03-27T07:32:37.313Z,47.38
2023-03-27T07:35:06.803Z,48.43
2023-03-27T07:37:56.258Z,49.39
2023-03-27T07:40:46.772Z,48.21
2023-03-27T07:43:29.011Z,49.81
2023-03-27T07:45:58.018Z,49.70
2023-03-27T07:48:27.962Z,49.56
2023-03-27T07:51:10.854Z,48.84
2023-03-27T07:53:41.717Z,50.02
2023-03-27T07:56:23.620Z,48.68
2023-03-27T07:59:08.405Z,48.79
2023-03-27T08:01:35.876Z,47.39
2023-03-27T08:04:04.015Z,46.84
2023-03-27T08:06:33.455Z,47.49
2023-03-27T08:09:02.842Z,47.33
2023-03-27T08:11:31.236Z,47.02
2023-03-27T08:13:59.778Z,46.20
2023-03-27T08:16:29.166Z,45.53
2023-03-27T08:18:57.901Z,45.99
2023-03-27T08:21:26.432Z,44.89
2023-03-27T08:23:57.730Z,47.67
2023-03-27T08:26:33.553Z,46.40
2023-03-27T08:29:03.865Z,45.79
2023-03-27T08:31:32.289Z,45.98
2023-03-27T08:34:01.326Z,45.52
2023-03-27T08:36:38.506Z,46.21
2023-03-27T08:39:08.294Z,47.75
2023-03-27T08:41:51.738Z,46.66
2023-03-27T08:44:29.565Z,46.88
2023-03-27T08:47:07.045Z,46.54
2023-03-27T08:49:49.428Z,45.23
2023-03-27T08:52:41.267Z,46.27
2023-03-27T08:55:22.431Z,44.38
2023-03-27T08:58:01.983Z,44.54
2023-03-27T09:00:39.807Z,47.10
2023-03-27T09:03:41.141Z,46.22
2023-03-27T09:06:26.995Z,46.86
2023-03-27T09:09:07.302Z,47.36
2023-03-27T09:11:48.317Z,47.67
2023-03-27T09:14:21.946Z,46.38
2023-03-27T09:16:50.664Z,45.72
2023-03-27T09:20:06.551Z,46.86
2023-03-27T09:22:48.601Z,45.41
2023-03-27T09:25:32.670Z,45.66
2023-03-27T09:28:26.577Z,45.97
2023-03-27T09:31:23.307Z,42.75
2023-03-27T09:33:51.052Z,46.89
2023-03-27T09:36:19.482Z,45.83
2023-03-27T09:38:53.537Z,45.96
2023-03-27T09:41:34.701Z,45.26
2023-03-27T09:44:13.379Z,46.95
2023-03-27T09:46:46.750Z,44.12
2023-03-27T09:49:19.548Z,45.81
2023-03-27T09:51:51.391Z,45.55
2023-03-27T09:54:54.114Z,40.58
2023-03-27T09:57:37.498Z,42.82
2023-03-27T10:00:27.941Z,44.89
2023-03-27T10:03:11.679Z,44.63
2023-03-27T10:05:39.620Z,44.49
2023-03-27T10:08:37.941Z,42.08
2023-03-27T10:11:32.921Z,43.92
2023-03-27T10:14:17.796Z,44.96
2023-03-27T10:16:47.850Z,43.92
2023-03-27T10:19:43.418Z,44.97
2023-03-27T10:22:28.037Z,46.32
2023-03-27T10:24:59.441Z,46.79
2023-03-27T10:27:46.844Z,48.12
2023-03-27T10:30:34.622Z,49.05
2023-03-27T10:33:34.221Z,44.97
2023-03-27T10:36:37.361Z,48.12
2023-03-27T10:39:13.978Z,49.93
2023-03-27T10:41:55.821Z,49.75
2023-03-27T10:44:28.509Z,47.77
2023-03-27T10:46:58.286Z,47.77
2023-03-27T10:49:57.529Z,46.29
2023-03-27T10:52:48.854Z,48.75
2023-03-27T10:55:33.639Z,48.94
2023-03-27T10:58:06.626Z,47.65
2023-03-27T11:00:46.847Z,48.92
2023-03-27T11:03:28.346Z,50.33
2023-03-27T11:06:05.124Z,49.53
2023-03-27T11:08:54.293Z,49.64
2023-03-27T11:11:33.611Z,51.87
2023-03-27T11:14:04.762Z,51.46
2023-03-27T11:16:44.566Z,50.81
2023-03-27T11:19:47.922Z,50.84
2023-03-27T11:22:48.480Z,51.15
2023-03-27T11:25:39.859Z,51.35
2023-03-27T11:28:42.940Z,46.78
2023-03-27T11:31:32.339Z,49.21
2023-03-27T11:34:06.401Z,47.48
2023-03-27T11:36:55.604Z,47.89
2023-03-27T11:39:42.423Z,46.26
2023-03-27T11:42:23.160Z,47.22
2023-03-27T11:44:51.342Z,49.07
2023-03-27T11:48:10.691Z,48.02
2023-03-27T11:51:01.805Z,47.21
2023-03-27T11:53:38.244Z,47.54
2023-03-27T11:56:13.965Z,49.64
2023-03-27T11:59:05.407Z,48.07
2023-03-27T12:01:47.559Z,47.51
2023-03-27T12:04:23.877Z,46.68
2023-03-27T12:07:36.354Z,47.39
2023-03-27T12:10:29.143Z,45.99
2023-03-27T12:13:34.962Z,45.69
2023-03-27T12:16:12.302Z,47.44
2023-03-27T12:19:05.818Z,47.82
2023-03-27T12:21:46.616Z,47.24
2023-03-27T12:24:33.245Z,49.84
2023-03-27T12:27:27.753Z,48.87
2023-03-27T12:30:41.114Z,49.11
2023-03-27T12:33:44.809Z,50.70
2023-03-27T12:36:18.100Z,49.56
2023-03-27T12:38:47.050Z,51.66
2023-03-27T12:41:26.495Z,49.25
2023-03-27T12:44:07.060Z,50.01
2023-03-27T12:46:42.409Z,48.64
2023-03-27T12:49:12.706Z,51.04
2023-03-27T12:52:05.217Z,49.24
2023-03-27T12:55:19.121Z,50.88
2023-03-27T12:58:00.436Z,47.95
2023-03-27T13:01:00.889Z,48.43
2023-03-27T13:04:22.651Z,48.03
2023-03-27T13:07:29.611Z,48.32
2023-03-27T13:10:28.663Z,50.21
2023-03-27T13:12:58.482Z,50.33
2023-03-27T13:15:55.174Z,53.39
2023-03-27T13:19:06.443Z,53.86
2023-03-27T13:22:03.967Z,54.14
2023-03-27T13:24:58.223Z,54.38
2023-03-27T13:27:46.880Z,55.28
2023-03-27T13:30:33.589Z,54.12
2023-03-27T13:33:39.769Z,52.81
2023-03-27T13:36:22.907Z,53.25
2023-03-27T13:38:52.879Z,54.46
2023-03-27T13:41:46.093Z,54.26
2023-03-27T13:44:30.345Z,55.13
2023-03-27T13:47:14.809Z,56.42
2023-03-27T13:50:14.422Z,57.46
2023-03-27T13:53:07.875Z,58.46
2023-03-27T13:56:50.553Z,58.06
2023-03-27T13:59:38.803Z,58.44
2023-03-27T14:02:36.900Z,60.03
2023-03-27T14:05:31.122Z,60.49
2023-03-27T14:08:26.146Z,60.45
2023-03-27T14:11:38.913Z,62.81
2023-03-27T14:14:37.298Z,64.42
2023-03-27T14:17:21.232Z,63.27
2023-03-27T14:20:13.461Z,63.99
2023-03-27T14:22:49.020Z,64.07
2023-03-27T14:25:30.421Z,63.16
2023-03-27T14:28:09.311Z,61.07
2023-03-27T14:30:47.623Z,63.12
2023-03-27T14:34:10.399Z,62.73
2023-03-27T14:36:42.626Z,63.89
2023-03-27T14:39:22.262Z,66.81
2023-03-27T14:41:55.790Z,66.70
2023-03-27T14:44:29.755Z,68.19
2023-03-27T14:47:04.738Z,69.39
2023-03-27T14:49:39.072Z,67.28
2023-03-27T14:52:09.753Z,68.04
2023-03-27T14:54:59.904Z,65.80
2023-03-27T14:57:34.463Z,65.62
2023-03-27T15:00:07.254Z,66.56
2023-03-27T15:02:42.323Z,66.50
2023-03-27T15:05:12.618Z,65.17
2023-03-27T15:07:45.111Z,65.94
2023-03-27T15:10:28.831Z,66.03
2023-03-27T15:13:14.632Z,65.61
2023-03-27T15:15:50.363Z,65.52
2023-03-27T15:18:33.494Z,66.10
2023-03-27T15:21:07.696Z,64.76
2023-03-27T15:23:43.602Z,64.20
2023-03-27T15:26:20.856Z,63.11
2023-03-27T15:29:04.258Z,62.77
2023-03-27T15:31:34.168Z,64.18
2023-03-27T15:34:23.566Z,64.04
2023-03-27T15:37:00.532Z,63.87
2023-03-27T15:39:27.831Z,63.23
2023-03-27T15:42:03.324Z,63.70
2023-03-27T15:44:34.380Z,62.79
2023-03-27T15:47:01.450Z,65.17
2023-03-27T15:49:41.491Z,62.25
2023-03-27T15:52:28.171Z,63.75
2023-03-27T15:54:56.413Z,63.92
2023-03-27T15:57:23.676Z,64.07
2023-03-27T15:59:53.260Z,64.17
2023-03-27T16:02:24.033Z,64.11
2023-03-27T16:04:54.423Z,63.12
2023-03-27T16:07:27.496Z,66.88
2023-03-27T16:10:05.377Z,67.87
2023-03-27T16:12:42.860Z,67.34
2023-03-27T16:15:37.608Z,67.24
2023-03-27T16:18:24.754Z,67.39
2023-03-27T16:20:51.897Z,66.86
2023-03-27T16:23:18.922Z,66.85
2023-03-27T16:25:46.059Z,66.76
2023-03-27T16:28:14.688Z,66.98
2023-03-27T16:30:46.022Z,66.75
2023-03-27T16:33:19.752Z,67.13
2023-03-27T16:35:47.854Z,66.99
2023-03-27T16:38:15.839Z,67.32
2023-03-27T16:40:43.479Z,67.37
2023-03-27T16:43:13.685Z,67.34
2023-03-27T16:45:41.148Z,67.01
2023-03-27T16:48:08.562Z,66.51
2023-03-27T16:50:35.743Z,66.29
2023-03-27T16:53:02.832Z,66.03
2023-03-27T16:55:29.970Z,65.68
2023-03-27T16:57:57.126Z,65.02
2023-03-27T17:00:24.511Z,65.44
2023-03-27T17:02:51.548Z,68.18
2023-03-27T17:05:18.807Z,67.68
2023-03-27T17:07:47.030Z,66.68
2023-03-27T17:10:15.002Z,66.54
2023-03-27T17:12:42.002Z,66.32
2023-03-27T17:15:09.392Z,66.32
2023-03-27T17:17:36.479Z,66.15
2023-03-27T17:20:09.406Z,65.97
2023-03-27T17:22:36.537Z,66.47
2023-03-27T17:25:05.911Z,65.05
2023-03-27T17:27:33.555Z,65.50
2023-03-27T17:30:00.798Z,65.16
2023-03-27T17:32:27.942Z,65.16
2023-03-27T17:34:55.413Z,65.17
2023-03-27T17:37:23.212Z,64.60
2023-03-27T17:39:50.485Z,65.10
2023-03-27T17:42:17.989Z,65.88
2023-03-27T17:44:45.508Z,65.87
2023-03-27T17:47:13.440Z,65.87
2023-03-27T17:49:41.315Z,66.13
2023-03-27T17:52:11.349Z,66.35
2023-03-27T17:54:39.213Z,65.94
2023-03-27T17:57:06.533Z,66.00
2023-03-27T17:59:33.788Z,65.31
2023-03-27T18:02:01.389Z,64.99
2023-03-27T18:04:29.537Z,64.84
2023-03-27T18:06:57.237Z,64.42
2023-03-27T18:09:25.509Z,64.84
2023-03-27T18:11:52.685Z,65.14
2023-03-27T18:14:19.670Z,65.85
2023-03-27T18:16:46.723Z,66.02
2023-03-27T18:19:14.674Z,66.22
2023-03-27T18:21:41.778Z,66.75
2023-03-27T18:24:08.784Z,67.19
2023-03-27T18:26:35.742Z,67.29
2023-03-27T18:29:04.095Z,67.56
2023-03-27T18:31:31.822Z,67.25
2023-03-27T18:33:59.031Z,66.93
2023-03-27T18:36:26.259Z,66.84
2023-03-27T18:38:53.455Z,68.09
2023-03-27T18:41:20.602Z,68.05
2023-03-27T18:43:47.527Z,68.18
2023-03-27T18:46:17.267Z,67.65
2023-03-27T18:48:46.214Z,67.62
2023-03-27T18:51:13.518Z,68.09
2023-03-27T18:53:41.151Z,67.59
2023-03-27T18:56:08.442Z,67.03
2023-03-27T18:58:36.166Z,66.86
2023-03-27T19:01:09.162Z,66.49
2023-03-27T19:03:37.320Z,67.30
2023-03-27T19:06:06.906Z,67.49
2023-03-27T19:08:37.762Z,67.99
2023-03-27T19:11:06.236Z,68.31
2023-03-27T19:13:59.743Z,68.64
2023-03-27T19:16:34.691Z,68.73
2023-03-27T19:19:16.963Z,68.82
2023-03-27T19:21:55.100Z,69.45
2023-03-27T19:24:35.553Z,69.23
2023-03-27T19:27:03.307Z,69.14
2023-03-27T19:29:31.416Z,68.91
2023-03-27T19:31:58.784Z,68.84
2023-03-27T19:34:36.420Z,68.89
2023-03-27T19:37:09.308Z,68.33
2023-03-27T19:39:36.353Z,67.85
2023-03-27T19:42:03.488Z,67.81
2023-03-27T19:44:31.780Z,67.92
2023-03-27T19:46:59.257Z,67.76
2023-03-27T19:49:26.694Z,67.60
2023-03-27T19:52:20.346Z,67.43
2023-03-27T19:54:47.469Z,67.85
2023-03-27T19:57:17.613Z,68.16
2023-03-27T19:59:44.680Z,67.77
2023-03-27T20:02:12.399Z,68.01
2023-03-27T20:04:39.949Z,67.46
2023-03-27T20:07:10.208Z,67.71
2023-03-27T20:09:37.537Z,67.92
2023-03-27T20:12:05.604Z,67.24
2023-03-27T20:14:32.937Z,66.89
2023-03-27T20:17:00.019Z,66.90
2023-03-27T20:19:30.615Z,66.16
2023-03-27T20:22:00.278Z,67.63
2023-03-27T20:24:29.085Z,66.06
2023-03-27T20:26:59.522Z,65.39
2023-03-27T20:29:26.645Z,66.42
2023-03-27T20:31:53.905Z,66.22
2023-03-27T20:34:22.487Z,67.46
2023-03-27T20:36:53.373Z,67.96
2023-03-27T20:39:49.661Z,68.53
2023-03-27T20:42:23.269Z,69.71
2023-03-27T20:44:58.355Z,70.16
2023-03-27T20:47:25.555Z,70.33
2023-03-27T20:49:52.728Z,70.70
2023-03-27T20:52:19.953Z,71.12
2023-03-27T20:54:47.986Z,71.64
2023-03-27T20:57:25.128Z,70.74
2023-03-27T20:59:54.281Z,70.29
2023-03-27T21:02:21.877Z,69.71
2023-03-27T21:04:49.196Z,69.38
2023-03-27T21:07:16.924Z,69.15
2023-03-27T21:09:46.824Z,68.76
2023-03-27T21:12:13.794Z,69.49
2023-03-27T21:14:40.796Z,69.45
2023-03-27T21:17:07.779Z,69.63
2023-03-27T21:19:34.705Z,69.70
2023-03-27T21:22:01.771Z,69.98
2023-03-27T21:24:28.814Z,69.85
2023-03-27T21:26:55.850Z,69.55
2023-03-27T21:29:24.181Z,69.52
2023-03-27T21:31:51.289Z,70.25
2023-03-27T21:34:18.743Z,70.65
2023-03-27T21:36:45.829Z,69.99
2023-03-27T21:39:13.047Z,69.81
2023-03-27T21:41:40.119Z,69.42
2023-03-27T21:44:07.175Z,69.67
2023-03-27T21:46:34.183Z,69.48
2023-03-27T21:49:01.130Z,69.71
2023-03-27T21:51:28.060Z,69.59
2023-03-27T21:53:55.012Z,68.76
2023-03-27T21:56:22.061Z,69.50
2023-03-27T21:58:49.088Z,69.80
2023-03-27T22:01:16.148Z,70.00
2023-03-27T22:03:43.174Z,69.98
2023-03-27T22:06:13.078Z,69.94
2023-03-27T22:08:45.437Z,70.09
2023-03-27T22:11:12.992Z,70.17
2023-03-27T22:13:41.905Z,70.31
2023-03-27T22:16:14.492Z,70.63
2023-03-27T22:18:41.561Z,70.57
2023-03-27T22:21:17.388Z,70.96
2023-03-27T22:23:44.847Z,71.10
2023-03-27T22:26:12.051Z,71.92
2023-03-27T22:28:38.997Z,71.67
2023-03-27T22:31:06.282Z,72.10
2023-03-27T22:33:33.499Z,71.97
2023-03-27T22:36:00.652Z,71.69
2023-03-27T22:38:32.991Z,72.23
2023-03-27T22:41:00.285Z,72.33
2023-03-27T22:43:31.041Z,71.95
2023-03-27T22:46:08.302Z,71.99
2023-03-27T22:48:35.580Z,72.18
2023-03-27T22:51:02.808Z,72.04
2023-03-27T22:53:32.007Z,72.19
2023-03-27T22:56:00.299Z,71.88
2023-03-27T22:58:28.278Z,71.73
2023-03-27T23:00:55.657Z,72.48
2023-03-27T23:03:24.286Z,72.63
2023-03-27T23:05:52.385Z,72.53
2023-03-27T23:08:21.528Z,72.14
2023-03-27T23:11:01.393Z,72.26
2023-03-27T23:13:30.070Z,72.85
2023-03-27T23:15:57.773Z,73.48
2023-03-27T23:18:25.604Z,73.34
2023-03-27T23:20:57.230Z,73.04
2023-03-27T23:23:26.531Z,72.95
2023-03-27T23:25:54.922Z,72.47
2023-03-27T23:28:21.979Z,72.05
2023-03-27T23:31:01.098Z,72.70
2023-03-27T23:33:29.825Z,71.99
2023-03-27T23:36:02.583Z,71.62
2023-03-27T23:38:30.559Z,71.89
2023-03-27T23:41:01.210Z,72.83
2023-03-27T23:43:29.781Z,71.77
2023-03-27T23:45:59.552Z,71.84
2023-03-27T23:48:29.011Z,71.32
2023-03-27T23:50:57.180Z,72.57
2023-03-27T23:53:26.363Z,72.86
2023-03-27T23:55:54.613Z,74.24
2023-03-27T23:58:21.920Z,74.83
